Time;durP1;ratioP1;P1;durP2;ratioP2;P2;SDS_P1;SDS_P2;PMS_P1;PMS_P2;Temp;Humidity;BMP_temperature;BMP_pressure;BME280_temperature;BME280_humidity;BME280_pressure;Samples;Min_cycle;Max_cycle;Signal;HPM_P1;HPM_P2
2021/09/27 00:01:08;;;;;;;8.68;1.30;;;16.80;82.00;;;;;;4946038;29;20414;-94
2021/09/27 00:03:36;;;;;;;5.40;1.17;;;16.80;82.00;;;;;;4925986;29;20051;-92
2021/09/27 00:06:05;;;;;;;4.72;1.00;;;16.80;82.00;;;;;;4942445;29;20366;-93
2021/09/27 00:08:32;;;;;;;6.32;1.10;;;16.80;82.00;;;;;;4942836;29;20056;-93
2021/09/27 00:11:05;;;;;;;8.18;1.38;;;16.80;82.00;;;;;;4941861;29;20043;-92
2021/09/27 00:13:36;;;;;;;8.15;1.38;;;16.80;82.10;;;;;;4925957;29;20068;-94
2021/09/27 00:16:06;;;;;;;9.63;1.95;;;16.80;82.10;;;;;;4941300;29;20047;-93
2021/09/27 00:18:34;;;;;;;8.55;1.45;;;16.80;82.10;;;;;;4942289;29;20048;-94
2021/09/27 00:21:05;;;;;;;7.13;1.33;;;16.80;82.10;;;;;;4940734;29;20221;-92
2021/09/27 00:23:35;;;;;;;9.07;1.10;;;16.90;82.20;;;;;;4941395;29;20059;-93
2021/09/27 00:26:03;;;;;;;6.07;0.98;;;16.90;82.20;;;;;;4941280;29;20060;-93
2021/09/27 00:28:31;;;;;;;3.83;0.98;;;16.90;82.20;;;;;;4941368;29;20063;-93
2021/09/27 00:30:59;;;;;;;7.15;1.10;;;16.80;82.10;;;;;;4942325;29;20481;-91
2021/09/27 00:33:27;;;;;;;6.43;1.10;;;16.90;82.10;;;;;;4941541;29;20055;-92
2021/09/27 00:35:55;;;;;;;7.63;1.20;;;16.90;82.10;;;;;;4953185;29;20051;-92
2021/09/27 00:38:24;;;;;;;3.00;0.52;;;16.90;82.00;;;;;;4953782;29;20047;-93
2021/09/27 00:45:32;;;;;;;3.65;0.88;;;17.00;81.90;;;;;;4941074;29;20039;-91
2021/09/27 00:48:00;;;;;;;5.50;0.70;;;17.00;81.70;;;;;;4925793;29;20043;-92
2021/09/27 00:50:32;;;;;;;2.47;0.80;;;17.00;81.60;;;;;;4944148;29;20474;-93
2021/09/27 00:57:32;;;;;;;5.80;0.80;;;17.00;81.60;;;;;;4941053;29;20028;-93
2021/09/27 01:00:06;;;;;;;6.15;1.30;;;17.00;81.60;;;;;;4923654;29;20056;-92
2021/09/27 01:02:34;;;;;;;4.15;1.13;;;17.00;81.70;;;;;;4940687;29;20056;-93
2021/09/27 01:05:08;;;;;;;5.90;1.05;;;17.00;81.80;;;;;;4940652;29;20056;-92
2021/09/27 01:07:58;;;;;;;6.38;0.90;;;17.00;81.70;;;;;;4940470;29;20048;-93
2021/09/27 01:11:03;;;;;;;4.88;0.95;;;17.10;81.70;;;;;;4940324;29;20056;-92
2021/09/27 01:13:49;;;;;;;4.10;0.88;;;17.00;81.60;;;;;;4922988;29;20043;-91
2021/09/27 01:16:28;;;;;;;6.03;0.80;;;17.10;81.50;;;;;;4924833;29;20055;-91
2021/09/27 01:19:25;;;;;;;4.20;1.15;;;17.20;81.40;;;;;;4942594;29;20051;-92
2021/09/27 01:21:58;;;;;;;5.85;0.90;;;17.20;81.50;;;;;;4923913;29;20088;-91
2021/09/27 01:25:10;;;;;;;2.08;0.40;;;17.10;81.40;;;;;;4940859;29;20480;-88
2021/09/27 01:28:05;;;;;;;4.63;0.73;;;17.20;81.40;;;;;;4939694;29;20062;-91
2021/09/27 01:30:47;;;;;;;4.07;0.80;;;17.20;81.40;;;;;;4940138;29;20055;-92
2021/09/27 01:33:24;;;;;;;2.43;0.80;;;17.20;81.50;;;;;;4942842;29;20059;-92
2021/09/27 01:36:07;;;;;;;4.50;0.80;;;17.20;81.60;;;;;;4947417;29;20370;-91
2021/09/27 01:39:09;;;;;;;6.13;1.30;;;17.20;81.70;;;;;;4944671;29;20055;-91
2021/09/27 01:41:47;;;;;;;3.78;0.85;;;17.20;81.80;;;;;;4936551;29;20066;-91
2021/09/27 01:44:34;;;;;;;7.47;1.33;;;17.10;81.90;;;;;;4921835;29;20052;-91
2021/09/27 01:47:24;;;;;;;3.38;0.90;;;17.10;82.10;;;;;;4939485;29;20482;-91
2021/09/27 01:50:08;;;;;;;3.72;0.75;;;17.10;82.20;;;;;;4937339;29;20051;-91
2021/09/27 01:52:54;;;;;;;4.60;0.70;;;17.10;82.30;;;;;;4921138;29;20382;-92
2021/09/27 01:55:30;;;;;;;6.25;0.80;;;17.00;82.30;;;;;;4937751;29;20051;-90
2021/09/27 01:58:02;;;;;;;5.00;0.80;;;17.00;82.50;;;;;;4937113;29;20056;-90
2021/09/27 02:00:48;;;;;;;5.07;0.93;;;17.00;82.70;;;;;;4938381;29;20391;-90
2021/09/27 02:03:15;;;;;;;3.03;0.90;;;17.00;82.90;;;;;;4937707;29;20504;-91
2021/09/27 02:06:12;;;;;;;3.30;0.90;;;17.00;83.10;;;;;;4921668;29;20051;-90
2021/09/27 02:09:06;;;;;;;4.50;0.80;;;17.00;83.20;;;;;;4938597;29;20059;-91
2021/09/27 02:11:38;;;;;;;4.10;0.80;;;16.90;83.30;;;;;;4941569;29;20063;-91
2021/09/27 02:14:41;;;;;;;2.40;1.08;;;16.90;83.30;;;;;;4922336;29;20059;-91
2021/09/27 02:17:19;;;;;;;10.95;1.70;;;16.90;83.30;;;;;;4930189;29;20051;-91
2021/09/27 02:19:51;;;;;;;4.05;0.68;;;16.90;83.30;;;;;;4938430;29;20059;-91
2021/09/27 02:22:37;;;;;;;3.28;0.80;;;16.90;83.30;;;;;;4937204;29;20052;-93
2021/09/27 02:25:19;;;;;;;7.78;1.48;;;16.90;83.20;;;;;;4936772;29;20051;-91
2021/09/27 02:27:50;;;;;;;5.07;1.23;;;16.90;83.10;;;;;;4920531;29;20059;-92
2021/09/27 02:30:24;;;;;;;1.67;0.80;;;16.90;83.00;;;;;;4938535;29;20047;-92
2021/09/27 02:33:14;;;;;;;6.65;1.20;;;16.90;82.90;;;;;;4938557;29;20048;-93
2021/09/27 02:35:48;;;;;;;3.33;0.80;;;16.90;82.90;;;;;;4938150;29;20408;-91
2021/09/27 02:38:24;;;;;;;3.28;0.90;;;17.00;83.00;;;;;;4921826;29;20056;-91
2021/09/27 02:41:09;;;;;;;2.33;0.80;;;16.90;83.20;;;;;;4937969;29;20059;-91
2021/09/27 02:43:37;;;;;;;3.90;1.00;;;17.00;83.40;;;;;;4907461;29;20048;-91
2021/09/27 02:46:04;;;;;;;2.63;0.85;;;16.90;83.60;;;;;;4951143;29;20138;-91
2021/09/27 02:48:41;;;;;;;7.68;1.08;;;16.90;83.70;;;;;;4940138;29;20049;-91
2021/09/27 02:51:10;;;;;;;2.30;1.17;;;16.90;83.90;;;;;;4945028;29;20051;-91
2021/09/27 02:53:37;;;;;;;4.32;1.05;;;16.90;84.00;;;;;;4939662;29;20078;-90
2021/09/27 02:56:23;;;;;;;5.68;1.30;;;16.90;84.10;;;;;;4938346;29;20040;-91
2021/09/27 02:59:19;;;;;;;5.65;1.00;;;16.90;84.10;;;;;;4937732;29;20056;-90
2021/09/27 03:02:05;;;;;;;2.53;0.93;;;16.90;84.10;;;;;;4938912;29;20055;-91
2021/09/27 03:04:43;;;;;;;3.13;0.90;;;16.90;84.10;;;;;;4940536;29;20051;-92
2021/09/27 03:07:32;;;;;;;1.88;0.82;;;16.90;84.00;;;;;;4941910;29;20474;-90
2021/09/27 03:10:31;;;;;;;4.97;0.77;;;16.90;84.00;;;;;;4942946;29;20054;-91
2021/09/27 03:13:14;;;;;;;3.53;1.00;;;16.90;84.00;;;;;;4943245;29;20059;-92
2021/09/27 03:16:41;;;;;;;5.07;1.02;;;16.80;84.10;;;;;;4943444;29;20486;-91
2021/09/27 03:19:47;;;;;;;3.85;0.88;;;16.80;84.20;;;;;;4905557;29;20049;-90
2021/09/27 03:22:31;;;;;;;2.63;0.60;;;16.80;84.20;;;;;;4888779;29;20064;-90
2021/09/27 03:25:33;;;;;;;3.63;0.70;;;16.80;84.30;;;;;;4903108;29;20063;-92
2021/09/27 03:28:34;;;;;;;3.85;0.68;;;16.80;84.30;;;;;;4874843;29;20525;-90
2021/09/27 03:31:17;;;;;;;4.63;1.20;;;16.80;84.40;;;;;;4888101;29;20057;-91
2021/09/27 03:33:59;;;;;;;2.80;0.60;;;16.80;84.40;;;;;;4918516;29;20053;-92
2021/09/27 03:36:44;;;;;;;4.03;1.02;;;16.80;84.60;;;;;;4910945;29;20049;-92
2021/09/27 03:39:29;;;;;;;4.50;0.90;;;16.80;84.70;;;;;;4902711;29;20359;-91
2021/09/27 03:42:05;;;;;;;2.83;0.77;;;16.80;84.80;;;;;;4886486;29;20064;-86
2021/09/27 03:45:11;;;;;;;1.60;0.70;;;16.80;85.00;;;;;;4884693;29;20060;-92
2021/09/27 03:47:44;;;;;;;3.17;0.70;;;16.80;85.10;;;;;;4895583;29;20446;-92
2021/09/27 03:50:24;;;;;;;1.65;0.60;;;16.80;85.10;;;;;;4900907;29;20431;-92
2021/09/27 03:53:02;;;;;;;3.33;0.70;;;16.80;85.30;;;;;;4921477;29;20051;-91
2021/09/27 03:55:51;;;;;;;3.15;0.70;;;16.80;85.30;;;;;;4923512;29;20052;-92
2021/09/27 03:58:22;;;;;;;2.50;0.60;;;16.80;85.30;;;;;;4940619;29;20500;-91
2021/09/27 04:05:57;;;;;;;3.08;0.90;;;16.80;85.30;;;;;;4946875;29;20047;-91
2021/09/27 04:08:31;;;;;;;2.55;0.90;;;16.80;85.20;;;;;;4922609;29;20063;-92
2021/09/27 04:11:17;;;;;;;3.25;0.98;;;16.80;85.10;;;;;;4940404;29;20059;-91
2021/09/27 04:13:50;;;;;;;7.28;0.95;;;16.80;85.00;;;;;;4940172;29;20378;-92
2021/09/27 04:16:23;;;;;;;5.78;1.13;;;16.90;84.90;;;;;;4939039;29;20056;-90
2021/09/27 04:19:24;;;;;;;9.10;0.90;;;16.90;84.90;;;;;;4940857;29;20072;-92
2021/09/27 04:22:12;;;;;;;5.63;1.02;;;16.90;84.80;;;;;;4938900;29;20066;-91
2021/09/27 04:24:52;;;;;;;6.80;1.42;;;16.90;84.70;;;;;;4923907;29;20054;-91
2021/09/27 04:28:01;;;;;;;7.95;1.42;;;16.90;84.60;;;;;;4939285;29;20068;-92
2021/09/27 04:30:51;;;;;;;6.65;1.17;;;17.00;84.50;;;;;;4939469;29;20048;-91
2021/09/27 04:33:33;;;;;;;3.78;1.00;;;17.00;84.40;;;;;;4940265;29;20047;-90
2021/09/27 04:36:25;;;;;;;6.75;1.00;;;17.00;84.30;;;;;;4939778;29;20392;-93
2021/09/27 04:39:01;;;;;;;4.45;0.93;;;17.00;84.20;;;;;;4939992;29;20055;-91
2021/09/27 04:41:31;;;;;;;4.57;1.27;;;17.00;84.10;;;;;;4940124;29;20047;-90
2021/09/27 04:44:42;;;;;;;5.90;1.40;;;17.00;84.10;;;;;;4940129;29;20047;-91
2021/09/27 04:47:26;;;;;;;4.82;1.05;;;17.00;84.00;;;;;;4938982;29;20051;-91
2021/09/27 04:50:05;;;;;;;8.10;1.38;;;17.00;83.90;;;;;;4940197;29;20056;-90
2021/09/27 04:52:55;;;;;;;7.03;1.20;;;17.00;83.80;;;;;;4939967;29;20078;-91
2021/09/27 04:55:46;;;;;;;4.20;1.10;;;17.00;83.80;;;;;;4938950;29;20060;-92
2021/09/27 04:58:45;;;;;;;4.78;0.88;;;17.10;83.70;;;;;;4939658;29;20051;-93
2021/09/27 05:01:44;;;;;;;4.82;1.10;;;17.10;83.70;;;;;;4940073;29;20044;-92
2021/09/27 05:04:12;;;;;;;5.97;0.90;;;17.00;83.60;;;;;;4928293;29;20059;-93
2021/09/27 05:07:01;;;;;;;4.18;1.30;;;17.00;83.60;;;;;;4939364;29;20078;-92
2021/09/27 05:09:51;;;;;;;6.75;1.27;;;17.10;83.60;;;;;;4922368;29;20055;-91
2021/09/27 05:12:37;;;;;;;3.72;0.95;;;17.10;83.60;;;;;;4938297;29;20062;-92
2021/09/27 05:15:23;;;;;;;8.10;1.13;;;17.10;83.60;;;;;;4926044;29;20075;-91
2021/09/27 05:18:22;;;;;;;7.30;1.20;;;17.00;83.70;;;;;;4931399;29;20062;-92
2021/09/27 05:21:20;;;;;;;6.68;1.33;;;17.00;84.10;;;;;;4952238;29;20047;-93
2021/09/27 05:24:12;;;;;;;7.88;0.88;;;16.90;84.70;;;;;;4937788;29;20516;-95
2021/09/27 05:27:17;;;;;;;8.98;1.23;;;16.80;85.10;;;;;;4926522;29;20062;-94
2021/09/27 05:30:30;;;;;;;10.88;1.50;;;16.80;85.90;;;;;;4948637;29;20062;-94
2021/09/27 05:33:01;;;;;;;9.55;1.30;;;16.70;86.50;;;;;;4936912;29;20048;-89
2021/09/27 05:36:05;;;;;;;8.18;1.50;;;16.60;87.00;;;;;;4937911;29;20052;-82
2021/09/27 05:38:57;;;;;;;4.97;1.20;;;16.40;87.60;;;;;;4936577;29;20056;-79
2021/09/27 05:41:51;;;;;;;9.60;0.82;;;16.30;87.90;;;;;;4936673;29;20057;-74
2021/09/27 05:44:47;;;;;;;6.75;0.75;;;16.30;86.20;;;;;;4917351;29;20066;-77
2021/09/27 05:47:36;;;;;;;11.77;1.00;;;15.20;81.10;;;;;;4903876;29;20066;-79
2021/09/27 05:50:18;;;;;;;5.40;0.65;;;13.90;84.00;;;;;;4936683;29;20048;-74
2021/09/27 05:52:53;;;;;;;7.18;0.60;;;12.90;86.20;;;;;;4936647;29;20140;-77
2021/09/27 05:55:27;;;;;;;1.90;0.20;;;12.30;87.60;;;;;;4937209;29;20056;-76
2021/09/27 05:57:58;;;;;;;1.05;0.10;;;11.90;88.90;;;;;;4936812;29;20055;-73
2021/09/27 06:00:51;;;;;;;1.42;0.20;;;11.60;89.80;;;;;;4935749;29;20103;-72
2021/09/27 06:03:24;;;;;;;2.42;0.08;;;11.40;90.40;;;;;;4936727;29;20051;-71
2021/09/27 06:05:59;;;;;;;5.63;0.90;;;11.30;90.90;;;;;;4936102;29;20508;-73
2021/09/27 06:08:50;;;;;;;2.65;0.30;;;11.20;91.20;;;;;;4902971;29;20056;-73
2021/09/27 06:11:38;;;;;;;2.40;0.30;;;11.10;91.50;;;;;;4936110;29;20054;-79
2021/09/27 06:14:10;;;;;;;4.05;0.32;;;11.10;91.60;;;;;;4935481;29;20052;-73
2021/09/27 06:17:08;;;;;;;0.70;0.40;;;11.00;91.80;;;;;;4934853;29;20528;-75
2021/09/27 06:19:57;;;;;;;3.20;0.20;;;10.90;91.70;;;;;;4936578;29;20480;-73
2021/09/27 06:22:51;;;;;;;0.10;0.10;;;10.80;91.50;;;;;;4935278;29;20059;-73
2021/09/27 06:25:25;;;;;;;1.40;0.30;;;10.80;91.80;;;;;;4934868;29;20051;-72
2021/09/27 06:28:29;;;;;;;1.05;0.20;;;10.70;91.90;;;;;;4934839;29;20055;-72
2021/09/27 06:31:18;;;;;;;0.82;0.20;;;10.60;92.10;;;;;;4926024;29;20051;-72
2021/09/27 06:33:57;;;;;;;2.22;0.50;;;10.60;92.30;;;;;;4935911;29;20052;-72
2021/09/27 06:40:58;;;;;;;0.95;0.40;;;10.40;92.50;;;;;;4935203;29;20051;-74
2021/09/27 06:43:27;;;;;;;5.32;0.77;;;10.40;92.70;;;;;;4935581;29;20047;-74
2021/09/27 06:45:56;;;;;;;13.13;1.05;;;10.40;92.70;;;;;;4902727;29;20059;-73
2021/09/27 06:48:25;;;;;;;4.70;1.00;;;10.40;92.90;;;;;;4934352;29;20080;-72
2021/09/27 06:50:54;;;;;;;3.15;1.10;;;10.40;92.90;;;;;;4918200;29;20051;-72
2021/09/27 06:57:53;;;;;;;3.10;0.60;;;10.40;93.20;;;;;;4935809;29;20028;-73
2021/09/27 07:00:23;;;;;;;1.17;0.45;;;10.40;93.30;;;;;;4917928;29;20052;-72
2021/09/27 07:02:51;;;;;;;2.83;0.50;;;10.40;93.20;;;;;;4917674;29;20066;-72
2021/09/27 07:05:19;;;;;;;1.45;0.40;;;10.40;93.30;;;;;;4918079;29;20059;-72
2021/09/27 07:07:47;;;;;;;3.28;0.50;;;10.40;93.30;;;;;;4935158;29;20047;-70
2021/09/27 07:10:18;;;;;;;4.78;0.60;;;10.40;93.40;;;;;;4919428;29;20055;-72
2021/09/27 07:12:45;;;;;;;5.30;1.00;;;10.50;93.40;;;;;;4935877;29;20047;-71
2021/09/27 07:15:14;;;;;;;6.50;1.15;;;10.50;93.50;;;;;;4935842;29;20389;-71
2021/09/27 07:17:41;;;;;;;1.73;1.30;;;10.50;93.60;;;;;;4918452;29;20075;-70
2021/09/27 07:20:17;;;;;;;5.55;1.20;;;10.50;93.60;;;;;;4935649;29;20047;-72
2021/09/27 07:22:46;;;;;;;1.42;1.10;;;10.50;93.70;;;;;;4917758;29;20054;-71
2021/09/27 07:25:15;;;;;;;1.35;0.80;;;10.50;93.80;;;;;;4918331;29;20063;-70
2021/09/27 07:27:43;;;;;;;2.28;1.00;;;10.60;93.80;;;;;;4934131;29;20047;-69
2021/09/27 07:30:12;;;;;;;2.42;0.55;;;10.60;93.80;;;;;;4917871;29;20052;-69
2021/09/27 07:32:40;;;;;;;3.70;0.50;;;10.60;93.60;;;;;;4918627;29;20044;-69
2021/09/27 07:35:10;;;;;;;1.65;0.77;;;10.60;93.60;;;;;;4935717;29;20052;-69
2021/09/27 07:37:41;;;;;;;1.48;1.02;;;10.60;93.60;;;;;;4935939;29;20397;-69
2021/09/27 07:40:14;;;;;;;1.90;0.70;;;10.60;93.70;;;;;;4935428;29;20047;-69
2021/09/27 07:42:41;;;;;;;1.30;0.85;;;10.70;93.70;;;;;;4935646;29;20052;-69
2021/09/27 07:45:12;;;;;;;0.50;0.50;;;10.60;93.70;;;;;;4935683;29;20050;-70
2021/09/27 07:47:39;;;;;;;1.83;0.90;;;10.70;93.60;;;;;;4935626;29;20055;-69
2021/09/27 07:50:08;;;;;;;2.53;0.80;;;10.70;93.60;;;;;;4934763;29;20055;-70
2021/09/27 07:52:41;;;;;;;1.35;0.95;;;10.70;93.60;;;;;;4939154;29;20052;-69
2021/09/27 07:55:10;;;;;;;1.95;0.88;;;10.70;93.60;;;;;;4938908;29;20039;-69
2021/09/27 07:57:37;;;;;;;0.88;0.70;;;10.70;93.50;;;;;;4938339;29;20060;-69
2021/09/27 08:00:07;;;;;;;3.75;0.63;;;10.70;93.50;;;;;;4938075;29;20056;-70
2021/09/27 08:02:39;;;;;;;0.45;0.40;;;10.70;93.40;;;;;;4937914;29;20052;-71
2021/09/27 08:05:10;;;;;;;0.40;0.40;;;10.60;93.40;;;;;;4938450;29;20052;-69
2021/09/27 08:07:37;;;;;;;1.70;0.30;;;10.60;93.30;;;;;;4938674;29;20066;-70
2021/09/27 08:10:07;;;;;;;1.60;0.30;;;10.60;92.90;;;;;;4937768;29;20051;-71
2021/09/27 08:12:37;;;;;;;1.75;0.35;;;10.50;92.70;;;;;;4904899;29;20500;-70
2021/09/27 08:15:10;;;;;;;0.57;0.30;;;10.50;92.40;;;;;;4938920;29;20052;-71
2021/09/27 08:17:38;;;;;;;2.60;0.50;;;10.30;92.00;;;;;;4937888;29;20512;-70
2021/09/27 08:20:08;;;;;;;2.70;0.50;;;10.30;92.30;;;;;;4921832;29;20058;-71
2021/09/27 08:22:36;;;;;;;1.30;0.35;;;10.30;92.50;;;;;;4920131;29;20059;-71
2021/09/27 08:25:06;;;;;;;2.83;0.60;;;10.30;92.30;;;;;;4937640;29;20058;-71
2021/09/27 08:27:35;;;;;;;2.92;0.40;;;10.30;92.40;;;;;;4937251;29;20067;-72
2021/09/27 08:30:06;;;;;;;8.27;1.05;;;10.30;92.00;;;;;;4938220;29;20048;-71
2021/09/27 08:32:33;;;;;;;3.20;0.77;;;10.30;92.10;;;;;;4938413;29;20056;-72
2021/09/27 08:35:01;;;;;;;1.63;0.45;;;10.30;92.00;;;;;;4937827;29;20044;-72
2021/09/27 08:37:28;;;;;;;2.08;0.43;;;10.30;92.10;;;;;;4920956;29;20379;-71
2021/09/27 08:39:58;;;;;;;3.80;0.30;;;10.30;92.30;;;;;;4920727;29;20052;-73
2021/09/27 08:42:36;;;;;;;1.08;0.60;;;10.30;92.30;;;;;;4937954;29;20063;-73
2021/09/27 08:45:27;;;;;;;1.10;0.50;;;10.30;92.40;;;;;;4938013;29;20398;-72
2021/09/27 08:48:02;;;;;;;1.50;0.60;;;10.40;92.50;;;;;;4938096;29;20054;-73
2021/09/27 08:50:35;;;;;;;0.90;0.68;;;10.50;92.50;;;;;;4920032;29;20466;-73
2021/09/27 08:53:22;;;;;;;2.45;0.70;;;10.50;92.50;;;;;;4937855;29;20047;-74
2021/09/27 08:55:51;;;;;;;1.90;0.70;;;10.60;92.20;;;;;;4937963;29;20043;-73
2021/09/27 08:58:25;;;;;;;3.15;0.80;;;10.70;92.30;;;;;;4937932;29;20066;-73
2021/09/27 09:01:00;;;;;;;2.13;0.57;;;10.70;92.00;;;;;;4936872;29;20401;-73
2021/09/27 09:03:45;;;;;;;4.10;0.40;;;10.80;91.90;;;;;;4935578;29;20528;-72
2021/09/27 09:06:22;;;;;;;3.60;0.40;;;10.80;91.70;;;;;;4920628;29;20055;-73
2021/09/27 09:08:54;;;;;;;0.40;0.30;;;10.80;91.10;;;;;;4936314;29;20078;-72
2021/09/27 09:11:28;;;;;;;0.65;0.22;;;10.80;90.90;;;;;;4919713;29;20060;-72
2021/09/27 09:14:04;;;;;;;1.15;0.28;;;10.80;91.00;;;;;;4920503;29;20386;-70
2021/09/27 09:21:10;;;;;;;0.75;0.30;;;11.00;90.50;;;;;;4919752;29;20382;-72
2021/09/27 09:23:40;;;;;;;;;;;11.00;89.80;;;;;;4937869;29;20071;-71
2021/09/27 09:26:11;;;;;;;0.57;0.30;;;11.10;89.40;;;;;;4936893;29;19934;-72
2021/09/27 09:28:41;;;;;;;2.22;0.45;;;11.20;89.50;;;;;;4937190;29;20055;-72
2021/09/27 09:31:18;;;;;;;0.82;0.30;;;11.30;89.30;;;;;;4936799;29;20044;-71
2021/09/27 09:34:00;;;;;;;0.30;0.20;;;11.30;88.60;;;;;;4936968;29;20043;-72
2021/09/27 09:36:37;;;;;;;2.33;0.40;;;11.30;88.40;;;;;;4936112;29;20054;-72
2021/09/27 09:39:36;;;;;;;1.10;0.40;;;11.30;88.70;;;;;;4937230;29;20398;-72
2021/09/27 09:42:05;;;;;;;0.85;0.40;;;11.20;87.90;;;;;;4936524;29;20048;-72
2021/09/27 09:44:35;;;;;;;1.58;0.45;;;11.30;88.00;;;;;;4919950;29;20058;-72
2021/09/27 09:47:20;;;;;;;2.80;0.60;;;11.30;88.20;;;;;;4936998;29;20374;-73
2021/09/27 09:50:02;;;;;;;2.30;0.47;;;11.40;88.30;;;;;;4937246;29;20051;-73
2021/09/27 09:52:33;;;;;;;2.28;0.50;;;11.60;87.50;;;;;;4920307;29;20052;-74
2021/09/27 09:55:11;;;;;;;2.28;0.50;;;11.60;86.50;;;;;;4918943;29;20062;-73
2021/09/27 09:57:40;;;;;;;1.17;0.50;;;11.60;86.50;;;;;;4935934;29;20055;-74
2021/09/27 10:00:20;;;;;;;3.67;0.75;;;11.70;87.10;;;;;;4936625;29;20419;-74
2021/09/27 10:02:52;;;;;;;3.15;0.55;;;11.80;87.60;;;;;;4919815;29;20052;-75
2021/09/27 10:09:57;;;;;;;2.05;0.50;;;12.00;86.20;;;;;;4935492;29;20048;-76
2021/09/27 10:12:42;;;;;;;1.00;0.40;;;12.20;85.80;;;;;;4935833;29;20047;-75
2021/09/27 10:15:26;;;;;;;2.08;0.60;;;12.30;86.00;;;;;;4936550;29;20527;-76
2021/09/27 10:18:05;;;;;;;0.70;0.30;;;12.50;84.10;;;;;;4938374;29;20048;-79
2021/09/27 10:25:00;;;;;;;1.08;0.30;;;12.50;83.80;;;;;;4936144;29;20052;-75
2021/09/27 10:27:35;;;;;;;3.50;0.20;;;12.80;84.40;;;;;;4934893;29;20056;-77
2021/09/27 10:30:21;;;;;;;2.05;0.50;;;13.00;83.10;;;;;;4903922;29;20048;-77
2021/09/27 10:32:57;;;;;;;3.60;0.47;;;13.10;82.80;;;;;;4902975;29;20062;-78
2021/09/27 10:35:33;;;;;;;2.55;0.65;;;13.30;83.80;;;;;;4936374;29;20054;-78
2021/09/27 10:38:05;;;;;;;1.08;0.30;;;13.60;82.10;;;;;;4935382;29;20044;-78
2021/09/27 10:40:35;;;;;;;1.65;0.30;;;13.80;80.50;;;;;;4919355;29;20481;-78
2021/09/27 10:43:10;;;;;;;3.40;0.40;;;13.90;79.90;;;;;;4918092;29;20055;-78
2021/09/27 10:45:43;;;;;;;2.22;0.30;;;13.80;79.40;;;;;;4934132;29;20469;-79
2021/09/27 10:48:11;;;;;;;1.80;0.35;;;13.80;80.40;;;;;;4936473;29;20051;-79
2021/09/27 10:51:06;;;;;;;0.70;0.15;;;14.00;79.10;;;;;;4918964;29;20060;-78
2021/09/27 10:53:44;;;;;;;2.33;0.40;;;14.10;77.10;;;;;;4934057;29;20043;-79
2021/09/27 10:56:36;;;;;;;2.60;0.60;;;14.20;77.80;;;;;;4902685;29;20051;-79
2021/09/27 10:59:13;;;;;;;0.88;0.22;;;14.20;77.90;;;;;;4919569;29;20385;-80
2021/09/27 11:01:55;;;;;;;1.95;0.40;;;14.30;78.60;;;;;;4936228;29;20044;-79
2021/09/27 11:04:31;;;;;;;3.85;0.57;;;14.40;79.10;;;;;;4903555;29;20047;-80
2021/09/27 11:07:11;;;;;;;3.53;0.75;;;14.50;77.60;;;;;;4936168;29;20052;-81
2021/09/27 11:09:43;;;;;;;9.32;0.90;;;14.70;78.30;;;;;;4918290;29;20048;-81
2021/09/27 11:12:25;;;;;;;4.82;0.60;;;14.80;77.00;;;;;;4918421;29;20063;-88
2021/09/27 11:15:12;;;;;;;2.67;0.77;;;14.90;74.40;;;;;;4919412;29;20039;-83
2021/09/27 11:17:46;;;;;;;4.43;0.50;;;14.90;74.10;;;;;;4939356;29;20063;-83
2021/09/27 11:20:39;;;;;;;7.03;1.05;;;14.90;73.40;;;;;;4935007;29;20048;-82
2021/09/27 11:23:19;;;;;;;6.25;1.20;;;15.00;74.60;;;;;;4935316;29;20052;-82
2021/09/27 11:26:05;;;;;;;9.27;1.30;;;15.10;74.20;;;;;;4936153;29;20048;-82
2021/09/27 11:28:53;;;;;;;4.18;0.60;;;15.20;72.50;;;;;;4939892;29;20051;-83
2021/09/27 11:31:27;;;;;;;3.42;0.60;;;15.30;72.00;;;;;;4939791;29;20071;-83
2021/09/27 11:34:16;;;;;;;15.05;1.10;;;15.30;71.50;;;;;;4922196;29;20052;-82
2021/09/27 11:36:51;;;;;;;3.15;0.73;;;15.50;72.40;;;;;;4922144;29;20525;-83
2021/09/27 11:39:33;;;;;;;2.25;0.57;;;15.70;72.30;;;;;;4939026;29;20489;-82
2021/09/27 11:42:19;;;;;;;10.55;0.90;;;16.10;70.80;;;;;;4939801;29;20055;-83
2021/09/27 11:44:59;;;;;;;11.43;1.00;;;16.50;68.90;;;;;;4922523;29;20063;-82
2021/09/27 11:47:44;;;;;;;4.78;0.40;;;16.60;68.90;;;;;;4938826;29;20473;-83
2021/09/27 11:50:34;;;;;;;2.72;0.45;;;16.50;65.20;;;;;;4939651;29;20048;-83
2021/09/27 11:53:22;;;;;;;5.45;1.00;;;16.60;65.60;;;;;;4939533;29;20052;-81
2021/09/27 11:55:57;;;;;;;5.65;0.70;;;16.60;66.30;;;;;;4939489;29;20064;-81
2021/09/27 11:58:35;;;;;;;6.07;1.10;;;16.90;65.30;;;;;;4906209;29;20055;-80
2021/09/27 12:01:19;;;;;;;4.72;1.25;;;16.80;63.70;;;;;;4938525;29;20060;-81
2021/09/27 12:03:58;;;;;;;4.85;1.08;;;16.40;64.50;;;;;;4932979;29;20060;-79
2021/09/27 12:06:38;;;;;;;8.32;0.98;;;16.00;66.40;;;;;;4935548;29;20050;-81
2021/09/27 12:09:11;;;;;;;8.95;0.95;;;16.00;67.80;;;;;;4940642;29;20476;-82
2021/09/27 12:11:54;;;;;;;4.65;0.95;;;16.10;66.60;;;;;;4939310;29;20051;-82
2021/09/27 12:14:49;;;;;;;4.68;0.85;;;15.90;66.20;;;;;;4921972;29;20402;-81
2021/09/27 12:17:20;;;;;;;6.55;0.90;;;15.60;64.20;;;;;;4922131;29;20044;-81
2021/09/27 12:20:00;;;;;;;5.80;1.02;;;15.40;64.90;;;;;;4922110;29;20582;-82
2021/09/27 12:22:31;;;;;;;10.18;1.13;;;15.50;65.90;;;;;;4937599;29;20421;-81
2021/09/27 12:25:06;;;;;;;4.85;0.90;;;16.10;66.70;;;;;;4939684;29;20385;-82
2021/09/27 12:27:33;;;;;;;8.18;0.75;;;16.80;64.50;;;;;;4921128;29;20048;-81
2021/09/27 12:30:08;;;;;;;5.20;0.82;;;17.50;57.90;;;;;;4938446;29;20116;-81
2021/09/27 12:32:40;;;;;;;5.93;0.75;;;17.60;56.40;;;;;;4939230;29;20048;-82
2021/09/27 12:35:35;;;;;;;6.00;0.68;;;17.80;56.80;;;;;;4944341;29;20054;-81
2021/09/27 12:38:04;;;;;;;4.63;1.10;;;18.10;56.70;;;;;;4938472;29;20059;-81
2021/09/27 12:40:38;;;;;;;5.20;1.10;;;18.50;56.90;;;;;;4939182;29;20048;-82
2021/09/27 12:43:22;;;;;;;5.68;0.90;;;18.70;57.60;;;;;;4938906;29;20474;-82
2021/09/27 12:46:06;;;;;;;4.05;0.90;;;18.60;57.20;;;;;;4938764;29;20056;-81
2021/09/27 12:48:40;;;;;;;4.82;0.63;;;18.00;54.40;;;;;;4938400;29;20043;-81
2021/09/27 12:51:11;;;;;;;6.32;0.80;;;17.30;55.80;;;;;;4937234;29;20497;-81
2021/09/27 12:53:59;;;;;;;6.65;0.98;;;17.00;59.30;;;;;;4938585;29;20059;-81
2021/09/27 12:56:29;;;;;;;4.70;0.70;;;17.50;58.30;;;;;;4938063;29;20371;-81
2021/09/27 12:59:05;;;;;;;3.67;0.65;;;18.20;58.20;;;;;;4937758;29;20058;-82
2021/09/27 13:01:47;;;;;;;5.15;0.80;;;18.90;54.70;;;;;;4938136;29;20406;-82
2021/09/27 13:04:32;;;;;;;6.70;1.10;;;19.30;52.40;;;;;;4937854;29;20048;-82
2021/09/27 13:07:07;;;;;;;3.97;0.65;;;19.80;52.30;;;;;;4938631;29;20044;-81
2021/09/27 13:14:25;;;;;;;9.52;1.00;;;20.80;49.90;;;;;;4938350;29;20036;-81
2021/09/27 13:17:07;;;;;;;4.57;1.20;;;21.00;51.00;;;;;;4940347;29;20526;-82
2021/09/27 13:19:43;;;;;;;6.35;1.10;;;20.60;52.40;;;;;;4939453;29;20054;-82
2021/09/27 13:22:23;;;;;;;4.07;0.90;;;19.70;53.10;;;;;;4919843;29;20048;-81
2021/09/27 13:29:41;;;;;;;4.35;1.02;;;17.50;56.90;;;;;;4920240;29;20398;-83
2021/09/27 13:32:18;;;;;;;5.38;0.80;;;17.00;57.90;;;;;;4937321;29;20047;-81
2021/09/27 13:34:54;;;;;;;7.68;1.17;;;17.30;58.00;;;;;;4904620;29;20056;-82
2021/09/27 13:37:28;;;;;;;3.33;0.85;;;18.00;57.10;;;;;;4918817;29;20096;-80
2021/09/27 13:40:00;;;;;;;5.00;0.98;;;18.80;57.40;;;;;;4937504;29;20047;-80
2021/09/27 13:42:42;;;;;;;4.33;0.93;;;19.80;57.30;;;;;;4936467;29;20494;-81
2021/09/27 13:45:14;;;;;;;5.80;0.63;;;20.60;52.70;;;;;;4937153;29;20048;-81
2021/09/27 13:47:43;;;;;;;4.72;1.00;;;21.20;49.50;;;;;;4904402;29;20055;-81
2021/09/27 13:50:11;;;;;;;5.47;0.90;;;21.40;47.00;;;;;;4936755;29;20393;-80
2021/09/27 13:52:47;;;;;;;4.82;1.00;;;21.50;47.70;;;;;;4937222;29;20121;-81
2021/09/27 13:55:15;;;;;;;6.65;0.93;;;21.60;44.60;;;;;;4920091;29;20048;-80
2021/09/27 13:57:42;;;;;;;2.55;0.70;;;21.50;43.80;;;;;;4936660;29;20047;-79
2021/09/27 14:00:12;;;;;;;5.25;1.05;;;21.40;44.80;;;;;;4937429;29;20470;-78
2021/09/27 14:02:40;;;;;;;4.95;0.77;;;21.30;42.90;;;;;;4936403;29;20474;-81
2021/09/27 14:05:08;;;;;;;2.70;0.70;;;21.30;43.40;;;;;;4936463;29;20049;-79
2021/09/27 14:07:39;;;;;;;9.20;0.85;;;21.20;41.90;;;;;;4918395;29;20059;-75
2021/09/27 14:10:16;;;;;;;3.92;1.00;;;21.20;42.50;;;;;;4919091;29;20059;-78
2021/09/27 14:13:05;;;;;;;6.43;1.00;;;21.30;42.50;;;;;;4935799;29;20051;-80
2021/09/27 14:15:34;;;;;;;3.90;0.80;;;21.40;40.60;;;;;;4936309;29;20512;-80
2021/09/27 14:18:04;;;;;;;11.07;1.00;;;21.30;41.70;;;;;;4936130;29;20099;-77
2021/09/27 14:20:33;;;;;;;3.83;0.95;;;21.20;41.30;;;;;;4936201;29;20070;-79
2021/09/27 14:23:05;;;;;;;4.30;1.00;;;21.00;41.20;;;;;;4934857;29;20481;-80
2021/09/27 14:25:38;;;;;;;7.93;0.70;;;20.40;42.80;;;;;;4936643;29;20055;-80
2021/09/27 14:28:06;;;;;;;8.80;1.20;;;20.10;44.80;;;;;;4919250;29;20048;-80
2021/09/27 14:30:34;;;;;;;3.83;0.60;;;20.00;45.00;;;;;;4935753;29;20051;-80
2021/09/27 14:33:06;;;;;;;3.95;0.50;;;20.30;44.60;;;;;;4919347;29;20052;-80